createdAt,value
2022-09-04T00:01:34.165Z,12.80
2022-09-04T00:04:49.906Z,11.30
2022-09-04T00:07:52.966Z,11.80
2022-09-04T00:10:59.442Z,10.10
2022-09-04T00:14:10.418Z,11.10
2022-09-04T00:16:55.523Z,11.30
2022-09-04T00:19:44.287Z,11.50
2022-09-04T00:22:44.676Z,12.20
2022-09-04T00:25:26.400Z,11.90
2022-09-04T00:28:20.743Z,11.40
2022-09-04T00:31:14.190Z,10.50
2022-09-04T00:34:07.898Z,10.70
2022-09-04T00:36:41.740Z,10.90
2022-09-04T00:39:17.451Z,10.80
2022-09-04T00:42:14.599Z,11.80
2022-09-04T00:45:09.859Z,10.40
2022-09-04T00:48:04.707Z,11.10
2022-09-04T00:50:49.589Z,10.90
2022-09-04T00:53:46.939Z,12.10
2022-09-04T00:56:49.301Z,10.40
2022-09-04T00:59:35.409Z,9.90
2022-09-04T01:03:05.635Z,9.70
2022-09-04T01:05:51.932Z,10.10
2022-09-04T01:09:01.817Z,12.00
2022-09-04T01:11:58.013Z,9.60
2022-09-04T01:14:40.004Z,11.40
2022-09-04T01:17:18.419Z,9.90
2022-09-04T01:20:22.852Z,9.60
2022-09-04T01:23:36.589Z,9.30
2022-09-04T01:26:28.824Z,9.90
2022-09-04T01:29:57.413Z,9.00
2022-09-04T01:32:51.088Z,9.80
2022-09-04T01:35:40.981Z,10.10
2022-09-04T01:38:26.558Z,11.20
2022-09-04T01:41:38.184Z,12.20
2022-09-04T01:44:09.872Z,11.00
2022-09-04T01:47:09.981Z,10.10
2022-09-04T01:49:54.996Z,11.40
2022-09-04T01:52:49.816Z,9.30
2022-09-04T01:55:58.942Z,8.90
2022-09-04T01:58:48.336Z,11.10
2022-09-04T02:01:21.162Z,10.20
2022-09-04T02:04:10.050Z,11.10
2022-09-04T02:06:45.891Z,10.40
2022-09-04T02:10:02.919Z,9.70
2022-09-04T02:12:51.869Z,10.70
2022-09-04T02:16:09.146Z,9.30
2022-09-04T02:19:16.995Z,9.10
2022-09-04T02:22:03.055Z,9.70
2022-09-04T02:25:16.933Z,9.10
2022-09-04T02:28:12.453Z,9.60
2022-09-04T02:31:11.621Z,9.10
2022-09-04T02:34:10.747Z,11.50
2022-09-04T02:36:55.412Z,10.00
2022-09-04T02:39:40.199Z,9.80
2022-09-04T02:42:28.476Z,8.20
2022-09-04T02:45:48.715Z,9.30
2022-09-04T02:48:59.078Z,9.70
2022-09-04T02:51:46.302Z,11.00
2022-09-04T02:54:58.192Z,9.90
2022-09-04T02:58:01.898Z,9.60
2022-09-04T03:01:37.374Z,10.90
2022-09-04T03:04:37.163Z,11.90
2022-09-04T03:07:14.787Z,13.20
2022-09-04T03:09:55.523Z,10.20
2022-09-04T03:12:51.207Z,9.70
2022-09-04T03:15:30.129Z,10.70
2022-09-04T03:18:19.458Z,10.50
2022-09-04T03:21:01.562Z,10.30
2022-09-04T03:23:55.897Z,10.20
2022-09-04T03:26:29.957Z,10.30
2022-09-04T03:29:31.597Z,9.70
2022-09-04T03:32:18.917Z,9.40
2022-09-04T03:35:03.007Z,10.60
2022-09-04T03:38:21.040Z,10.50
2022-09-04T03:41:20.009Z,10.60
2022-09-04T03:44:25.869Z,8.90
2022-09-04T03:47:08.586Z,11.00
2022-09-04T03:50:00.715Z,10.50
2022-09-04T03:52:57.529Z,10.60
2022-09-04T03:56:04.028Z,11.60
2022-09-04T03:58:52.992Z,9.70
2022-09-04T04:01:51.687Z,9.10
2022-09-04T04:05:12.382Z,11.40
2022-09-04T04:08:20.906Z,9.80
2022-09-04T04:11:22.261Z,11.10
2022-09-04T04:15:01.186Z,8.90
2022-09-04T04:17:46.667Z,9.60
2022-09-04T04:20:38.804Z,10.80
2022-09-04T04:23:34.255Z,11.50
2022-09-04T04:26:29.114Z,10.60
2022-09-04T04:29:41.635Z,9.70
2022-09-04T04:32:37.253Z,10.90
2022-09-04T04:35:23.076Z,9.10
2022-09-04T04:38:13.629Z,11.80
2022-09-04T04:41:17.352Z,11.50
2022-09-04T04:44:12.963Z,10.40
2022-09-04T04:46:45.129Z,9.90
2022-09-04T04:50:28.046Z,10.00
2022-09-04T04:53:10.562Z,9.90
2022-09-04T04:56:04.500Z,10.10
2022-09-04T04:59:05.995Z,9.90
2022-09-04T05:02:10.836Z,9.10
2022-09-04T05:05:03.360Z,10.10
2022-09-04T05:08:05.056Z,10.30
2022-09-04T05:10:46.171Z,9.50
2022-09-04T05:13:40.726Z,8.90
2022-09-04T05:16:43.419Z,10.50
2022-09-04T05:19:20.121Z,10.60
2022-09-04T05:22:20.275Z,10.20
2022-09-04T05:25:17.734Z,10.40
2022-09-04T05:28:32.704Z,9.90
2022-09-04T05:31:28.106Z,10.30
2022-09-04T05:34:21.388Z,9.00
2022-09-04T05:37:37.380Z,11.00
2022-09-04T05:40:35.046Z,9.20
2022-09-04T05:43:48.276Z,10.90
2022-09-04T05:46:46.824Z,10.10
2022-09-04T05:49:47.373Z,10.10
2022-09-04T05:52:46.177Z,10.00
2022-09-04T05:55:40.267Z,8.60
2022-09-04T05:58:40.179Z,9.70
2022-09-04T06:01:40.781Z,8.10
2022-09-04T06:04:35.518Z,8.20
2022-09-04T06:07:13.348Z,8.40
2022-09-04T06:10:20.906Z,10.10
2022-09-04T06:13:23.246Z,9.20
2022-09-04T06:16:16.463Z,7.40
2022-09-04T06:19:22.706Z,6.80
2022-09-04T06:21:51.805Z,9.00
2022-09-04T06:24:52.544Z,7.70
2022-09-04T06:27:45.858Z,6.40
2022-09-04T06:30:16.158Z,5.90
2022-09-04T06:32:57.408Z,6.90
2022-09-04T06:35:56.305Z,7.20
2022-09-04T06:38:53.607Z,6.20
2022-09-04T06:41:57.066Z,6.20
2022-09-04T06:44:54.145Z,6.90
2022-09-04T06:47:48.095Z,5.70
2022-09-04T06:50:24.099Z,6.10
2022-09-04T06:53:29.695Z,5.30
2022-09-04T06:56:27.874Z,5.50
2022-09-04T06:59:12.650Z,4.80
2022-09-04T07:02:14.028Z,6.00
2022-09-04T07:04:56.906Z,5.90
2022-09-04T07:08:16.788Z,6.00
2022-09-04T07:10:53.369Z,7.40
2022-09-04T07:13:45.810Z,5.60
2022-09-04T07:16:46.650Z,5.60
2022-09-04T07:19:55.786Z,5.00
2022-09-04T07:22:34.706Z,5.40
2022-09-04T07:25:19.570Z,4.70
2022-09-04T07:27:56.384Z,6.10
2022-09-04T07:30:26.630Z,5.90
2022-09-04T07:33:07.481Z,5.70
2022-09-04T07:35:54.867Z,5.60
2022-09-04T07:38:56.251Z,4.90
2022-09-04T07:42:10.577Z,6.40
2022-09-04T07:44:51.468Z,4.30
2022-09-04T07:47:45.747Z,5.00
2022-09-04T07:50:32.896Z,4.30
2022-09-04T07:53:30.976Z,4.00
2022-09-04T07:56:36.068Z,4.90
2022-09-04T07:59:46.214Z,3.60
2022-09-04T08:02:57.804Z,3.00
2022-09-04T08:06:30.397Z,4.90
2022-09-04T08:09:21.744Z,4.60
2022-09-04T08:12:27.154Z,3.60
2022-09-04T08:15:16.816Z,3.40
2022-09-04T08:18:21.874Z,5.00
2022-09-04T08:21:36.879Z,4.30
2022-09-04T08:24:34.505Z,4.70
2022-09-04T08:27:34.934Z,5.70
2022-09-04T08:30:14.648Z,5.70
2022-09-04T08:33:36.208Z,5.30
2022-09-04T08:36:20.096Z,5.00
2022-09-04T08:38:57.328Z,5.20
2022-09-04T08:41:55.152Z,4.00
2022-09-04T08:44:45.908Z,3.50
2022-09-04T08:48:09.600Z,4.30
2022-09-04T08:51:22.105Z,4.90
2022-09-04T08:54:12.689Z,6.60
2022-09-04T08:57:32.616Z,4.10
2022-09-04T09:00:17.014Z,3.80
2022-09-04T09:03:20.855Z,4.00
2022-09-04T09:06:15.131Z,3.50
2022-09-04T09:09:37.897Z,4.30
2022-09-04T09:12:41.908Z,4.30
2022-09-04T09:15:42.739Z,5.50
2022-09-04T09:18:21.046Z,4.60
2022-09-04T09:20:54.932Z,4.60
2022-09-04T09:23:39.179Z,4.00
2022-09-04T09:26:29.797Z,3.80
2022-09-04T09:29:05.597Z,4.30
2022-09-04T09:32:03.606Z,3.60
2022-09-04T09:34:58.326Z,4.10
2022-09-04T09:38:11.511Z,4.30
2022-09-04T09:41:48.062Z,4.10
2022-09-04T09:44:34.952Z,4.50
2022-09-04T09:47:21.963Z,4.10
2022-09-04T09:50:06.560Z,4.20
2022-09-04T09:53:15.554Z,4.50
2022-09-04T09:56:15.250Z,4.50
2022-09-04T09:59:09.045Z,6.00
2022-09-04T10:02:02.588Z,5.00
2022-09-04T10:04:53.575Z,4.60
2022-09-04T10:07:52.515Z,6.00
2022-09-04T10:10:51.806Z,4.70
2022-09-04T10:13:49.888Z,5.10
2022-09-04T10:16:55.343Z,6.90
2022-09-04T10:20:20.986Z,5.20
2022-09-04T10:23:34.317Z,5.40
2022-09-04T10:27:00.928Z,5.70
2022-09-04T10:30:29.056Z,5.70
2022-09-04T10:33:28.093Z,5.30
2022-09-04T10:36:47.791Z,6.90
2022-09-04T10:40:13.700Z,5.40
2022-09-04T10:42:52.200Z,6.70
2022-09-04T10:45:36.208Z,6.20
2022-09-04T10:48:36.604Z,6.40
2022-09-04T10:51:35.468Z,5.70
2022-09-04T10:54:57.227Z,5.50
2022-09-04T10:57:46.234Z,5.70
2022-09-04T11:00:22.788Z,5.90
2022-09-04T11:03:15.581Z,5.30
2022-09-04T11:06:42.052Z,4.90
2022-09-04T11:09:47.498Z,5.20
2022-09-04T11:12:41.379Z,5.40
2022-09-04T11:15:48.657Z,6.50
2022-09-04T11:18:58.416Z,6.40
2022-09-04T11:22:15.437Z,5.60
2022-09-04T11:25:38.077Z,5.10
2022-09-04T11:28:13.636Z,4.70
2022-09-04T11:31:15.847Z,6.80
2022-09-04T11:34:20.743Z,5.20
2022-09-04T11:37:44.031Z,4.90
2022-09-04T11:41:19.860Z,7.60
2022-09-04T11:44:19.780Z,6.40
2022-09-04T11:47:38.131Z,6.60
2022-09-04T11:50:23.515Z,5.40
2022-09-04T11:53:49.745Z,5.50
2022-09-04T11:57:16.696Z,7.30
2022-09-04T12:00:18.147Z,5.80
2022-09-04T12:03:32.089Z,5.40
2022-09-04T12:07:02.500Z,5.30
2022-09-04T12:09:59.680Z,5.40
2022-09-04T12:13:07.546Z,6.00
2022-09-04T12:15:47.741Z,5.30
2022-09-04T12:18:59.126Z,6.50
2022-09-04T12:21:56.276Z,4.80
2022-09-04T12:24:47.398Z,5.20
2022-09-04T12:27:59.392Z,5.20
2022-09-04T12:30:51.013Z,4.60
2022-09-04T12:33:47.447Z,5.40
2022-09-04T12:37:14.621Z,4.80
2022-09-04T12:40:04.211Z,4.50
2022-09-04T12:42:52.296Z,4.60
2022-09-04T12:45:51.515Z,4.70
2022-09-04T12:48:26.147Z,4.80
2022-09-04T12:51:27.194Z,6.80
2022-09-04T12:54:32.134Z,5.50
2022-09-04T12:57:34.225Z,5.80
2022-09-04T13:00:12.599Z,5.70
2022-09-04T13:03:00.287Z,6.60
2022-09-04T13:05:54.408Z,5.50
2022-09-04T13:08:42.093Z,4.30
2022-09-04T13:11:52.937Z,5.40
2022-09-04T13:14:47.544Z,4.30
2022-09-04T13:17:35.350Z,4.50
2022-09-04T13:20:40.911Z,4.90
2022-09-04T13:23:51.782Z,5.00
2022-09-04T13:26:45.252Z,4.20
2022-09-04T13:30:06.327Z,3.90
2022-09-04T13:33:11.912Z,5.30
2022-09-04T13:35:52.039Z,4.30
2022-09-04T13:38:36.521Z,4.60
2022-09-04T13:41:42.993Z,4.10
2022-09-04T13:45:07.795Z,5.60
2022-09-04T13:48:13.185Z,4.80
2022-09-04T13:50:52.722Z,6.10
2022-09-04T13:53:57.715Z,4.90
2022-09-04T13:57:03.490Z,5.90
2022-09-04T13:59:33.915Z,4.90
2022-09-04T14:02:07.532Z,4.40
2022-09-04T14:04:44.641Z,4.60
2022-09-04T14:07:30.115Z,5.30
2022-09-04T14:10:01.805Z,5.30
2022-09-04T14:12:53.758Z,5.20
2022-09-04T14:16:06.925Z,4.70
2022-09-04T14:18:45.525Z,4.80
2022-09-04T14:21:37.388Z,4.90
2022-09-04T14:24:33.456Z,3.80
2022-09-04T14:27:32.806Z,4.90
2022-09-04T14:30:31.797Z,5.60
2022-09-04T14:33:36.509Z,6.30
2022-09-04T14:36:15.624Z,4.70
2022-09-04T14:39:22.682Z,4.90
2022-09-04T14:42:00.357Z,4.10
2022-09-04T14:45:14.149Z,5.60
2022-09-04T14:47:56.908Z,4.40
2022-09-04T14:50:29.953Z,4.50
2022-09-04T14:53:08.233Z,5.00
2022-09-04T14:55:42.557Z,5.50
2022-09-04T14:58:20.406Z,5.30
2022-09-04T15:01:07.640Z,5.80
2022-09-04T15:03:48.458Z,6.30
2022-09-04T15:07:09.746Z,5.10
2022-09-04T15:09:41.869Z,6.40
2022-09-04T15:12:24.646Z,5.40
2022-09-04T15:15:11.007Z,5.60
2022-09-04T15:17:47.244Z,3.90
2022-09-04T15:20:22.884Z,3.50
2022-09-04T15:23:11.733Z,4.40
2022-09-04T15:26:07.966Z,4.00
2022-09-04T15:28:50.062Z,4.30
2022-09-04T15:31:34.561Z,4.50
2022-09-04T15:34:09.767Z,4.40
2022-09-04T15:36:39.828Z,4.80
2022-09-04T15:39:18.410Z,4.00
2022-09-04T15:41:50.592Z,4.30
2022-09-04T15:44:33.410Z,3.50
2022-09-04T15:47:47.738Z,4.40
2022-09-04T15:50:26.396Z,4.00
2022-09-04T15:53:26.959Z,4.00
2022-09-04T15:56:09.901Z,4.30
2022-09-04T15:59:03.144Z,4.70
2022-09-04T16:01:51.890Z,6.40
2022-09-04T16:04:34.590Z,4.70
2022-09-04T16:07:20.661Z,4.80
2022-09-04T16:10:09.600Z,4.40
2022-09-04T16:13:11.468Z,4.60
2022-09-04T16:15:44.927Z,4.30
2022-09-04T16:18:22.969Z,3.90
2022-09-04T16:21:00.201Z,5.60
2022-09-04T16:23:36.492Z,5.40
2022-09-04T16:26:17.985Z,4.50
2022-09-04T16:28:51.902Z,4.90
2022-09-04T16:31:31.920Z,4.30
2022-09-04T16:34:27.047Z,4.20
2022-09-04T16:37:04.013Z,3.50
2022-09-04T16:40:14.209Z,3.80
2022-09-04T16:43:25.762Z,5.30
2022-09-04T16:46:29.957Z,4.20
2022-09-04T16:49:21.029Z,4.80
2022-09-04T16:52:18.173Z,6.00
2022-09-04T16:55:02.943Z,4.20
2022-09-04T16:57:46.617Z,5.10
2022-09-04T17:00:18.069Z,5.70
2022-09-04T17:02:56.301Z,6.90
2022-09-04T17:05:47.807Z,4.50
2022-09-04T17:08:34.116Z,4.30
2022-09-04T17:11:29.567Z,5.10
2022-09-04T17:14:26.126Z,5.20
2022-09-04T17:17:30.739Z,6.20
2022-09-04T17:21:58.347Z,6.10
2022-09-04T17:29:02.285Z,6.80
2022-09-04T17:29:16.885Z,5.90
2022-09-04T17:29:48.651Z,5.90
2022-09-04T17:34:20.875Z,5.70
2022-09-04T17:40:37.880Z,5.70
2022-09-04T17:40:55.855Z,6.20
2022-09-04T17:43:22.521Z,5.70
2022-09-04T17:46:41.530Z,5.00
2022-09-04T17:49:27.569Z,6.10
2022-09-04T17:52:13.520Z,6.90
2022-09-04T17:55:08.440Z,7.20
2022-09-04T17:58:05.099Z,6.60
2022-09-04T18:01:18.453Z,9.40
2022-09-04T18:04:20.294Z,11.30
2022-09-04T18:08:08.974Z,7.80
2022-09-04T18:10:38.973Z,8.00
2022-09-04T18:13:48.378Z,7.40
2022-09-04T18:17:12.394Z,8.20
2022-09-04T18:20:35.611Z,7.20
2022-09-04T18:23:51.501Z,8.60
2022-09-04T18:26:41.027Z,9.60
2022-09-04T18:33:55.670Z,6.70
2022-09-04T18:37:09.522Z,6.60
2022-09-04T18:37:22.281Z,6.40
2022-09-04T18:39:32.926Z,7.50
2022-09-04T18:46:41.277Z,6.90
2022-09-04T18:50:26.113Z,10.10
2022-09-04T18:50:31.178Z,10.10
2022-09-04T18:51:20.707Z,10.30
2022-09-04T18:53:57.678Z,7.50
2022-09-04T18:56:31.133Z,14.00
2022-09-04T18:59:19.848Z,10.80
2022-09-04T19:02:03.304Z,13.40
2022-09-04T19:04:51.797Z,16.20
2022-09-04T19:08:00.086Z,12.90
2022-09-04T19:10:33.443Z,10.30
2022-09-04T19:13:35.212Z,8.40
2022-09-04T19:16:05.671Z,9.20
2022-09-04T19:18:55.616Z,10.30
2022-09-04T19:21:37.178Z,10.10
2022-09-04T19:24:39.783Z,9.10
2022-09-04T19:27:27.649Z,7.90
2022-09-04T19:30:18.906Z,8.60
2022-09-04T19:33:12.395Z,12.00
2022-09-04T19:35:43.144Z,8.00
2022-09-04T19:45:53.598Z,8.90
2022-09-04T19:46:03.049Z,6.80
2022-09-04T19:46:09.185Z,9.40
2022-09-04T19:47:29.729Z,8.10
2022-09-04T19:53:22.116Z,11.40
2022-09-04T19:53:48.688Z,8.90
2022-09-04T19:56:27.616Z,7.90
2022-09-04T19:59:06.343Z,9.10
2022-09-04T20:01:58.106Z,10.20
2022-09-04T20:04:41.169Z,11.10
2022-09-04T20:07:17.923Z,11.90
2022-09-04T20:09:51.623Z,7.80
2022-09-04T20:12:32.839Z,9.20
2022-09-04T20:15:30.116Z,12.90
2022-09-04T20:18:19.258Z,8.70
2022-09-04T20:21:09.560Z,9.00
2022-09-04T20:23:56.193Z,9.20
2022-09-04T20:27:00.280Z,9.20
2022-09-04T20:29:57.936Z,9.40
2022-09-04T20:33:26.939Z,10.20
2022-09-04T20:36:02.753Z,8.70
2022-09-04T20:39:04.258Z,8.00
2022-09-04T20:42:21.570Z,8.70
2022-09-04T20:46:13.078Z,9.10
2022-09-04T20:52:44.255Z,10.00
2022-09-04T20:52:52.044Z,10.70
2022-09-04T20:54:29.003Z,11.00
2022-09-04T21:00:48.166Z,10.50
2022-09-04T21:03:15.015Z,10.70
2022-09-04T21:03:34.729Z,11.80
2022-09-04T21:06:25.314Z,10.80
2022-09-04T21:09:23.819Z,9.60
2022-09-04T21:12:17.020Z,10.30
2022-09-04T21:14:51.080Z,10.80
2022-09-04T21:17:52.829Z,10.30
2022-09-04T21:21:05.355Z,12.90
2022-09-04T21:24:03.448Z,9.00
2022-09-04T21:27:06.721Z,13.80
2022-09-04T21:29:58.366Z,10.00
2022-09-04T21:32:49.654Z,12.70
2022-09-04T21:35:22.538Z,11.70
2022-09-04T21:38:18.283Z,11.10
2022-09-04T21:41:04.272Z,10.40
2022-09-04T21:43:58.789Z,11.50
2022-09-04T21:47:08.814Z,11.30
2022-09-04T21:50:17.549Z,11.50
2022-09-04T21:53:24.498Z,11.50
2022-09-04T21:59:53.344Z,11.50
2022-09-04T22:02:35.824Z,13.50
2022-09-04T22:02:57.714Z,14.60
2022-09-04T22:05:44.459Z,9.90
2022-09-04T22:13:26.184Z,10.60
2022-09-04T22:13:42.209Z,9.30
2022-09-04T22:15:03.925Z,11.00
2022-09-04T22:17:45.559Z,10.70
2022-09-04T22:20:57.863Z,11.90
2022-09-04T22:24:00.789Z,10.90
2022-09-04T22:27:00.837Z,14.40
2022-09-04T22:29:51.275Z,11.10
2022-09-04T22:33:11.401Z,9.40
2022-09-04T22:36:14.138Z,9.30
2022-09-04T22:39:20.682Z,10.20
2022-09-04T22:43:01.589Z,13.40
2022-09-04T22:46:19.372Z,9.20
2022-09-04T22:49:18.946Z,8.80
2022-09-04T22:52:53.071Z,9.40
2022-09-04T22:56:23.417Z,11.30
2022-09-04T22:59:25.768Z,9.30
2022-09-04T23:02:39.929Z,9.90
2022-09-04T23:06:35.526Z,8.50
2022-09-04T23:13:44.172Z,10.00
2022-09-04T23:13:58.175Z,7.50
2022-09-04T23:15:51.491Z,8.80
2022-09-04T23:21:34.055Z,10.50
2022-09-04T23:26:48.450Z,7.00
2022-09-04T23:26:49.609Z,8.80
2022-09-04T23:28:39.885Z,9.70
2022-09-04T23:31:43.039Z,7.90
2022-09-04T23:35:14.234Z,8.40
2022-09-04T23:38:12.473Z,7.50
2022-09-04T23:41:44.687Z,7.30
2022-09-04T23:45:03.338Z,8.90
2022-09-04T23:48:05.743Z,8.60
2022-09-04T23:51:01.434Z,7.60
2022-09-04T23:54:00.107Z,7.30
2022-09-04T23:57:26.498Z,7.60
